KAFF/AFF METAR and TAF weather

Enter ICAO airport designator
Station Type Date Time Source
KAFF METAR 2021/08/04 19:58 UTC NOAA

KAFF 041958Z 01016KT 10SM BKN070 23/10 A3030 RMK AO2A SLP171 T02270095


Station Type Date Time Source
KAFF Decoded METAR 2021/08/04 19:58 UTC NOAA

Air Force Academy, CO, United States (KAFF) 38-58N 104-49W 1999M
Aug 04, 2021 - 03:58 PM EDT / 2021.08.04 1958 UTC
Wind: from the N (010 degrees) at 18 MPH (16 KT):0
Visibility: 10 mile(s):0
Sky conditions: mostly cloudy
Temperature: 72.9 F (22.7 C)
Dew Point: 49.1 F (9.5 C)
Relative Humidity: 43%
Pressure (altimeter): 30.3 in. Hg (1026 hPa)
ob: KAFF 041958Z 01016KT 10SM BKN070 23/10 A3030 RMK AO2A SLP171 T02270095
cycle: 20

Station Type Date Time Source
KAFF TAF 2021/08/04 19:12 UTC NOAA

TAF TAF KAFF 041905Z 0419/0601 36012G18KT 9999 VCSH SCT050 BKN070 QNH3028INS TS OMTNS WND 320V040
TEMPO 0419/0421 36015G25KT 510009
BECMG 0421/0422 36012G22KT 9999 NSW SCT050 QNH3029INS
BECMG 0501/0502 VRB06KT 9999 SCT040 QNH3030INS
BECMG 0509/0510 35006KT 9999 SKC 520204 QNH3030INS
BECMG 0515/0516 13006KT 9999 SKC QNH3032INS WND 090V170
BECMG 0519/0520 16012G18KT 9999 SKC QNH3025INS TX24/0421Z TN09/0511Z LAST NO
AMDS AFT 0421 NEXT 0911

Example: see airport list